Terminal Aerodrome Forecast
Issued by NWS

Home | Current Version | Previous Version | Text Only | Print | Product List | Glossary On
Versions: 1 2 3 4 5 6 7 8 9 10 11 12 13 14 15 16
633
FTAK31 PAJN 251122
TAFAWG
TAF
PAWG 251122Z 2512/2612 10008KT P6SM -RA BKN060 OVC080
     FM251500 11008KT P6SM -RA SCT025 OVC050
     FM260100 17005KT P6SM -SHRA BKN025 OVC040
     FM260600 13004KT P6SM VCSH SCT025 BKN040 OVC060
      AMD LTD TO CLD VIS AND WIND 2512/2515=

USA.gov is the U.S. government's official web portal to all federal, state and local government web resources and services.